Latest Weather Observations for Sellicks Hill

IDS60901

Issued at 6:41 pm CDT Friday 14 December 2018 (issued every 10 minutes, with the page automatically refreshed every 10 minutes)

About weather observations | Map of Adelaide area stations | Latest observations for Adelaide area | Other Formats
Station Details ID: 023886 Name: MOUNT TERRIBLE RADAR Lat: -35.33 Lon: 138.50 Height: 385.7 m
Data from the previous 72 hours. | See also: Recent months for locations in South Australia
Date/Time
CDT
Temp
°C
App
Temp
°C
Dew
Point
°C
Rel
Hum
%
Delta-T
°C
Wind Press
QNH
hPa
Press
MSL
hPa
Rain since
9am
mm
Dir  Spd
km/h
Gust
km/h
Spd
kts
Gust
kts
14/06:31pm - - - - - S 44 65 24 35 - - -
14/06:30pm - - - - - S 46 65 25 35 - - -
14/06:07pm - - - - - S 46 65 25 35 - - -
14/06:00pm - - - - - S 46 59 25 32 - - -
14/05:41pm - - - - - S 43 63 23 34 - - -
14/05:30pm - - - - - S 46 59 25 32 - - -
14/05:00pm - - - - - S 48 69 26 37 - - -
14/04:45pm - - - - - S 48 69 26 37 - - -
14/04:30pm - - - - - S 41 54 22 29 - - -
14/04:09pm - - - - - S 41 61 22 33 - - -
14/04:00pm - - - - - S 44 61 24 33 - - -
14/03:33pm - - - - - S 43 65 23 35 - - -
14/03:30pm - - - - - S 39 54 21 29 - - -
14/03:06pm - - - - - S 43 61 23 33 - - -
14/03:00pm - - - - - S 46 61 25 33 - - -
14/02:50pm - - - - - S 43 61 23 33 - - -
14/02:30pm - - - - - S 41 59 22 32 - - -
14/02:00pm - - - - - S 41 56 22 30 - - -
14/01:34pm - - - - - SSE 48 69 26 37 - - -
14/01:30pm - - - - - SSE 46 59 25 32 - - -
14/01:07pm - - - - - SSE 48 69 26 37 - - -
14/01:00pm - - - - - SSE 50 65 27 35 - - -
14/12:33pm - - - - - SSE 44 69 24 37 - - -
14/12:30pm - - - - - SSE 46 59 25 32 - - -
14/12:00pm - - - - - SSE 35 56 19 30 - - -
14/11:59am - - - - - SSE 33 56 18 30 - - -
14/11:30am - - - - - SSE 32 41 17 22 - - -
14/11:13am - - - - - SSE 48 67 26 36 - - -
14/11:00am - - - - - SSE 56 70 30 38 - - -
14/10:30am - - - - - SSE 56 76 30 41 - - -
14/10:00am - - - - - SSE 59 78 32 42 - - -
14/09:30am - - - - - SSE 57 78 31 42 - - -
14/09:05am - - - - - SSE 56 76 30 41 - - -
14/09:00am - - - - - S 59 74 32 40 - - -
14/08:30am - - - - - S 48 70 26 38 - - -
14/08:00am - - - - - S 41 69 22 37 - - -
14/07:30am - - - - - S 46 83 25 45 - - -
14/07:00am - - - - - S 48 76 26 41 - - -
14/06:30am - - - - - S 41 83 22 45 - - -
14/06:00am - - - - - S 33 67 18 36 - - -
14/05:41am - - - - - S 33 70 18 38 - - -
14/05:32am - - - - - S 28 50 15 27 - - -
14/05:30am - - - - - S 26 48 14 26 - - -
14/05:00am - - - - - SSW 22 41 12 22 - - -
14/04:30am - - - - - SSW 20 44 11 24 - - -
14/04:00am - - - - - SSW 17 41 9 22 - - -
14/03:30am - - - - - SSW 17 37 9 20 - - -
14/03:00am - - - - - SSW 17 33 9 18 - - -
14/02:30am - - - - - SSW 15 30 8 16 - - -
14/02:00am - - - - - SSW 19 35 10 19 - - -
14/01:30am - - - - - SW 19 41 10 22 - - -
14/01:00am - - - - - SW 19 43 10 23 - - -
14/12:30am - - - - - SW 17 32 9 17 - - -
14/12:00am - - - - - SW 19 43 10 23 - - -
 
Date/Time
CDT
Temp
°C
App
Temp
°C
Dew
Point
°C
Rel
Hum
%
Delta-T
°C
Wind Press
QNH
hPa
Press
MSL
hPa
Rain since
9am
mm
Dir  Spd
km/h
Gust
km/h
Spd
kts
Gust
kts
13/11:30pm - - - - - SW 19 32 10 17 - - -
13/11:00pm - - - - - SW 24 44 13 24 - - -
13/10:30pm - - - - - SSW 19 32 10 17 - - -
13/10:00pm - - - - - SSW 20 33 11 18 - - -
13/09:30pm - - - - - SSW 19 39 10 21 - - -
13/09:00pm - - - - - SSW 17 35 9 19 - - -
13/08:30pm - - - - - SW 19 37 10 20 - - -
13/08:00pm - - - - - SSW 17 39 9 21 - - -
13/07:30pm - - - - - SW 15 33 8 18 - - -
13/07:00pm - - - - - SSW 20 35 11 19 - - -
13/06:30pm - - - - - SW 15 32 8 17 - - -
13/06:00pm - - - - - SW 20 39 11 21 - - -
13/05:30pm - - - - - SW 17 35 9 19 - - -
13/05:00pm - - - - - SSW 20 37 11 20 - - -
13/04:30pm - - - - - SSW 22 41 12 22 - - -
13/04:00pm - - - - - SSW 20 37 11 20 - - -
13/03:30pm - - - - - SSW 17 39 9 21 - - -
13/03:00pm - - - - - SSW 19 33 10 18 - - -
13/02:30pm - - - - - SW 20 46 11 25 - - -
13/02:00pm - - - - - SSW 24 46 13 25 - - -
13/01:30pm - - - - - SSW 20 35 11 19 - - -
13/01:00pm - - - - - SSW 22 37 12 20 - - -
13/12:30pm - - - - - SW 20 50 11 27 - - -
13/12:00pm - - - - - SSW 22 43 12 23 - - -
13/11:30am - - - - - SSW 20 35 11 19 - - -
13/11:00am - - - - - SSW 20 39 11 21 - - -
13/10:30am - - - - - SW 19 39 10 21 - - -
13/10:00am - - - - - SW 17 35 9 19 - - -
13/09:30am - - - - - SW 19 41 10 22 - - -
13/09:00am - - - - - WSW 11 28 6 15 - - -
13/08:30am - - - - - SW 15 28 8 15 - - -
13/08:00am - - - - - SW 19 33 10 18 - - -
13/07:30am - - - - - SW 19 35 10 19 - - -
13/07:00am - - - - - SW 17 37 9 20 - - -
13/06:30am - - - - - SSW 17 35 9 19 - - -
13/06:00am - - - - - SSW 17 30 9 16 - - -
13/05:30am - - - - - SW 20 35 11 19 - - -
13/05:00am - - - - - SSW 19 37 10 20 - - -
13/04:30am - - - - - SSW 19 44 10 24 - - -
13/04:00am - - - - - SSW 15 33 8 18 - - -
13/03:30am - - - - - SSW 11 26 6 14 - - -
13/03:00am - - - - - SSW 17 30 9 16 - - -
13/02:30am - - - - - SSW 13 24 7 13 - - -
13/02:00am - - - - - SW 7 20 4 11 - - -
13/01:30am - - - - - WSW 6 11 3 6 - - -
13/01:00am - - - - - SW 7 19 4 10 - - -
13/12:30am - - - - - SSW 7 13 4 7 - - -
13/12:00am - - - - - SSW 11 19 6 10 - - -
 
Date/Time
CDT
Temp
°C
App
Temp
°C
Dew
Point
°C
Rel
Hum
%
Delta-T
°C
Wind Press
QNH
hPa
Press
MSL
hPa
Rain since
9am
mm
Dir  Spd
km/h
Gust
km/h
Spd
kts
Gust
kts
12/11:30pm - - - - - S 15 24 8 13 - - -
12/11:00pm - - - - - SSW 11 20 6 11 - - -
12/10:30pm - - - - - S 13 28 7 15 - - -
12/10:00pm - - - - - SW 7 15 4 8 - - -
12/09:30pm - - - - - WSW 7 13 4 7 - - -
12/09:00pm - - - - - W 6 13 3 7 - - -
12/08:30pm - - - - - W 4 11 2 6 - - -
12/08:00pm - - - - - WNW 4 9 2 5 - - -
12/07:30pm - - - - - NW 6 11 3 6 - - -
12/07:00pm - - - - - NNW 9 15 5 8 - - -
12/06:30pm - - - - - NNW 7 15 4 8 - - -
12/06:00pm - - - - - NNW 6 11 3 6 - - -
12/05:30pm - - - - - W 6 15 3 8 - - -
12/05:00pm - - - - - NNW 11 20 6 11 - - -
12/04:30pm - - - - - NNW 13 24 7 13 - - -
12/04:00pm - - - - - NW 9 19 5 10 - - -
12/03:30pm - - - - - WNW 7 13 4 7 - - -
12/03:00pm - - - - - NW 7 17 4 9 - - -
12/02:30pm - - - - - NW 6 15 3 8 - - -
12/02:00pm - - - - - NNW 7 17 4 9 - - -
12/01:30pm - - - - - NW 6 15 3 8 - - -
12/01:00pm - - - - - NW 7 15 4 8 - - -
12/12:30pm - - - - - NNW 7 17 4 9 - - -
12/12:00pm - - - - - NNW 7 13 4 7 - - -
12/11:30am - - - - - N 7 13 4 7 - - -
12/11:00am - - - - - N 7 11 4 6 - - -
12/10:30am - - - - - N 6 13 3 7 - - -
12/10:00am - - - - - NNW 9 13 5 7 - - -
12/09:30am - - - - - NNW 9 15 5 8 - - -
12/09:00am - - - - - N 7 13 4 7 - - -
12/08:30am - - - - - N 6 13 3 7 - - -
12/08:00am - - - - - N 6 11 3 6 - - -
12/07:30am - - - - - N 7 11 4 6 - - -
12/07:00am - - - - - N 7 11 4 6 - - -
12/06:30am - - - - - N 9 15 5 8 - - -
12/06:00am - - - - - N 11 19 6 10 - - -
12/05:30am - - - - - NNE 13 24 7 13 - - -
12/05:00am - - - - - NE 20 30 11 16 - - -
12/04:30am - - - - - ENE 24 35 13 19 - - -
12/04:00am - - - - - E 26 37 14 20 - - -
12/03:30am - - - - - E 26 35 14 19 - - -
12/03:00am - - - - - E 28 41 15 22 - - -
12/02:30am - - - - - E 30 41 16 22 - - -
12/02:00am - - - - - E 30 37 16 20 - - -
12/01:30am - - - - - E 30 39 16 21 - - -
12/01:00am - - - - - E 30 39 16 21 - - -
12/12:30am - - - - - E 28 39 15 21 - - -
12/12:00am - - - - - ESE 26 37 14 20 - - -
 
Date/Time
CDT
Temp
°C
App
Temp
°C
Dew
Point
°C
Rel
Hum
%
Delta-T
°C
Wind Press
QNH
hPa
Press
MSL
hPa
Rain since
9am
mm
Dir  Spd
km/h
Gust
km/h
Spd
kts
Gust
kts
11/11:30pm - - - - - ESE 24 32 13 17 - - -
11/11:00pm - - - - - ESE 26 33 14 18 - - -
11/10:30pm - - - - - ESE 26 37 14 20 - - -
11/10:00pm - - - - - SE 28 33 15 18 - - -
11/09:30pm - - - - - SE 30 33 16 18 - - -
11/09:00pm - - - - - SE 28 33 15 18 - - -
11/08:30pm - - - - - SE 28 33 15 18 - - -
11/08:00pm - - - - - SE 32 39 17 21 - - -
11/07:30pm - - - - - SE 30 35 16 19 - - -
11/07:00pm - - - - - SSE 28 32 15 17 - - -

Latest Capital City Observations: Canberra | Sydney | Melbourne | Brisbane | Adelaide | Perth | Hobart | Darwin

Other Formats:

Comma delimited format used in spreadsheet applications
http://www.bom.gov.au/fwo/IDS60901/IDS60901.95679.axf

JavaScript Object Notation format (JSON) in row-major order
http://www.bom.gov.au/fwo/IDS60901/IDS60901.95679.json